ELY034 EHAM-LHBP
Flight info
| Callsign | ELY034 |
|---|---|
| Flight time | 1h 36m |
| Altitude | 31000 |
| Route | ARNEM L620 HMM DCT NOMKA DCT OMELO DCT VLM DCT BNO DCT ODNEM DCT BERVA M748 ARFOX |
| Aircraft | B748/H-SDE3FGHIM1M2RWXY/LB1 |
Departure
| Time | 2026-05-06 15:01 |
|---|---|
| Airport | Amsterdam Airport Schiphol (EHAM) |
Arrival
| Time | 2026-05-06 16:38 |
|---|---|
| Airport | Budapest Liszt Ferenc International Airport (LHBP) |
| Time | Latitude | Longitude | Altitude | Speed | Heading |
|---|---|---|---|---|---|
| 2026-05-06 14:40 | 52.31299 | 4.75816 | -22 ft | 0 kts | 267° |
| 2026-05-06 14:53 | 52.31301 | 4.75847 | 6 ft | 3 kts | 252° |
| 2026-05-06 14:53 | 52.31307 | 4.75879 | 7 ft | 3 kts | 270° |
| 2026-05-06 14:53 | 52.31304 | 4.75912 | 8 ft | 3 kts | 309° |
| 2026-05-06 14:53 | 52.31288 | 4.75934 | 9 ft | 3 kts | 352° |
| 2026-05-06 14:54 | 52.31282 | 4.75935 | 9 ft | 0 kts | 358° |
| 2026-05-06 14:57 | 52.31292 | 4.75935 | 9 ft | 3 kts | 358° |
| 2026-05-06 14:57 | 52.31327 | 4.75932 | 7 ft | 7 kts | 357° |
| 2026-05-06 14:57 | 52.31385 | 4.75928 | 5 ft | 10 kts | 357° |
| 2026-05-06 14:58 | 52.31463 | 4.75920 | 6 ft | 11 kts | 351° |
| 2026-05-06 14:58 | 52.31507 | 4.75861 | 6 ft | 8 kts | 301° |
| 2026-05-06 14:58 | 52.31522 | 4.75757 | 5 ft | 12 kts | 272° |
| 2026-05-06 14:58 | 52.31513 | 4.75585 | 5 ft | 18 kts | 265° |
| 2026-05-06 14:59 | 52.31507 | 4.75359 | 5 ft | 20 kts | 270° |
| 2026-05-06 14:59 | 52.31504 | 4.75136 | 6 ft | 19 kts | 264° |
| 2026-05-06 14:59 | 52.31499 | 4.74926 | 5 ft | 18 kts | 270° |
| 2026-05-06 14:59 | 52.31497 | 4.74750 | 5 ft | 13 kts | 282° |
| 2026-05-06 15:00 | 52.31542 | 4.74674 | 6 ft | 7 kts | 336° |
| 2026-05-06 15:00 | 52.31582 | 4.74662 | 6 ft | 5 kts | 356° |
| 2026-05-06 15:00 | 52.31627 | 4.74676 | 6 ft | 8 kts | 21° |
| 2026-05-06 15:00 | 52.31672 | 4.74777 | 6 ft | 20 kts | 75° |
| 2026-05-06 15:01 | 52.31686 | 4.75274 | 4 ft | 81 kts | 87° |
| 2026-05-06 15:01 | 52.31737 | 4.76649 | 6 ft | 159 kts | 86° |
| 2026-05-06 15:01 | 52.31777 | 4.78594 | 575 ft | 169 kts | 88° |
| 2026-05-06 15:01 | 52.31754 | 4.80537 | 1142 ft | 181 kts | 81° |
| 2026-05-06 15:02 | 52.31925 | 4.82745 | 1331 ft | 208 kts | 81° |
| 2026-05-06 15:02 | 52.32040 | 4.85170 | 1888 ft | 218 kts | 84° |
| 2026-05-06 15:02 | 52.31850 | 4.87613 | 2747 ft | 223 kts | 111° |
| 2026-05-06 15:02 | 52.31211 | 4.89937 | 3574 ft | 225 kts | 109° |
| 2026-05-06 15:03 | 52.30587 | 4.92308 | 4374 ft | 228 kts | 109° |
| 2026-05-06 15:03 | 52.29961 | 4.94701 | 5151 ft | 230 kts | 110° |
| 2026-05-06 15:03 | 52.29391 | 4.97158 | 5887 ft | 232 kts | 101° |
| 2026-05-06 15:03 | 52.28964 | 4.99734 | 6911 ft | 238 kts | 104° |
| 2026-05-06 15:04 | 52.28499 | 5.02342 | 8040 ft | 243 kts | 104° |
| 2026-05-06 15:04 | 52.28026 | 5.05041 | 9185 ft | 250 kts | 104° |
| 2026-05-06 15:04 | 52.27545 | 5.07811 | 10223 ft | 258 kts | 104° |
| 2026-05-06 15:04 | 52.27055 | 5.10629 | 11178 ft | 264 kts | 105° |
| 2026-05-06 15:05 | 52.26544 | 5.13548 | 12133 ft | 271 kts | 105° |
| 2026-05-06 15:05 | 52.26367 | 5.14562 | 12443 ft | 273 kts | 105° |
| 2026-05-06 15:05 | 52.26054 | 5.16345 | 12984 ft | 277 kts | 105° |
| 2026-05-06 15:05 | 52.25519 | 5.19398 | 13876 ft | 283 kts | 105° |
| 2026-05-06 15:06 | 52.25136 | 5.21580 | 14557 ft | 285 kts | 105° |
| 2026-05-06 15:06 | 52.24585 | 5.24710 | 15651 ft | 290 kts | 104° |
| 2026-05-06 15:06 | 52.24282 | 5.27989 | 16674 ft | 294 kts | 94° |
| 2026-05-06 15:06 | 52.24126 | 5.31357 | 17644 ft | 300 kts | 95° |
| 2026-05-06 15:07 | 52.23970 | 5.34678 | 18529 ft | 304 kts | 95° |
| 2026-05-06 15:07 | 52.23813 | 5.37776 | 19278 ft | 308 kts | 96° |
| 2026-05-06 15:07 | 52.23631 | 5.41286 | 20095 ft | 312 kts | 96° |
| 2026-05-06 15:07 | 52.23450 | 5.44833 | 20896 ft | 316 kts | 96° |
| 2026-05-06 15:08 | 52.23268 | 5.48426 | 21674 ft | 320 kts | 96° |
| 2026-05-06 15:08 | 52.23072 | 5.52008 | 22409 ft | 323 kts | 100° |
| 2026-05-06 15:08 | 52.22462 | 5.55512 | 23155 ft | 323 kts | 112° |
| 2026-05-06 15:08 | 52.21614 | 5.58934 | 23728 ft | 329 kts | 115° |
| 2026-05-06 15:09 | 52.20701 | 5.62460 | 24013 ft | 345 kts | 114° |
| 2026-05-06 15:09 | 52.19883 | 5.65807 | 24136 ft | 361 kts | 112° |
| 2026-05-06 15:09 | 52.18963 | 5.69702 | 24267 ft | 374 kts | 112° |
| 2026-05-06 15:09 | 52.17994 | 5.73714 | 24459 ft | 385 kts | 113° |
| 2026-05-06 15:10 | 52.16988 | 5.77797 | 24819 ft | 391 kts | 113° |
| 2026-05-06 15:10 | 52.15972 | 5.81933 | 25266 ft | 395 kts | 113° |
| 2026-05-06 15:10 | 52.14954 | 5.86105 | 25685 ft | 398 kts | 113° |
| 2026-05-06 15:10 | 52.13927 | 5.90305 | 26109 ft | 400 kts | 113° |
| 2026-05-06 15:11 | 52.12889 | 5.94517 | 26528 ft | 403 kts | 113° |
| 2026-05-06 15:11 | 52.11840 | 5.98771 | 26942 ft | 405 kts | 113° |
| 2026-05-06 15:11 | 52.10803 | 6.02974 | 27351 ft | 407 kts | 113° |
| 2026-05-06 15:11 | 52.09778 | 6.07267 | 27741 ft | 409 kts | 107° |
| 2026-05-06 15:12 | 52.09179 | 6.11803 | 28139 ft | 412 kts | 101° |
| 2026-05-06 15:12 | 52.08721 | 6.16413 | 28502 ft | 413 kts | 100° |
| 2026-05-06 15:12 | 52.08277 | 6.21045 | 28846 ft | 415 kts | 101° |
| 2026-05-06 15:12 | 52.07792 | 6.25670 | 29168 ft | 416 kts | 102° |
| 2026-05-06 15:13 | 52.07286 | 6.30316 | 29500 ft | 417 kts | 101° |
| 2026-05-06 15:13 | 52.06795 | 6.34972 | 29814 ft | 419 kts | 101° |
| 2026-05-06 15:13 | 52.06312 | 6.39646 | 30091 ft | 420 kts | 101° |
| 2026-05-06 15:13 | 52.05818 | 6.44326 | 30332 ft | 421 kts | 101° |
| 2026-05-06 15:14 | 52.05315 | 6.49016 | 30568 ft | 422 kts | 102° |
| 2026-05-06 15:14 | 52.04811 | 6.53716 | 30801 ft | 423 kts | 101° |
| 2026-05-06 15:14 | 52.04305 | 6.58463 | 30870 ft | 427 kts | 101° |
| 2026-05-06 15:15 | 52.03286 | 6.67934 | 30868 ft | 431 kts | 102° |
| 2026-05-06 15:15 | 52.02163 | 6.77732 | 30896 ft | 450 kts | 105° |
| 2026-05-06 15:16 | 52.00583 | 6.87728 | 30890 ft | 469 kts | 105° |
| 2026-05-06 15:16 | 51.98936 | 6.98192 | 30885 ft | 488 kts | 105° |
| 2026-05-06 15:17 | 51.97201 | 7.09047 | 30881 ft | 505 kts | 106° |
| 2026-05-06 15:17 | 51.95204 | 7.19985 | 30869 ft | 506 kts | 108° |
| 2026-05-06 15:18 | 51.93549 | 7.29085 | 30867 ft | 506 kts | 108° |
| 2026-05-06 15:18 | 51.91491 | 7.40007 | 30868 ft | 507 kts | 108° |
| 2026-05-06 15:19 | 51.89451 | 7.50958 | 30854 ft | 508 kts | 108° |
| 2026-05-06 15:19 | 51.87381 | 7.61894 | 30851 ft | 508 kts | 108° |
| 2026-05-06 15:20 | 51.85400 | 7.72880 | 30860 ft | 510 kts | 103° |
| 2026-05-06 15:20 | 51.83910 | 7.84143 | 30851 ft | 512 kts | 103° |
| 2026-05-06 15:21 | 51.82380 | 7.95422 | 30850 ft | 513 kts | 103° |
| 2026-05-06 15:21 | 51.80846 | 8.06690 | 30848 ft | 514 kts | 103° |
| 2026-05-06 15:22 | 51.79314 | 8.17889 | 30842 ft | 514 kts | 103° |
| 2026-05-06 15:22 | 51.77753 | 8.29144 | 30835 ft | 514 kts | 103° |
| 2026-05-06 15:23 | 51.76184 | 8.40427 | 30829 ft | 515 kts | 103° |
| 2026-05-06 15:23 | 51.74598 | 8.51713 | 30830 ft | 516 kts | 103° |
| 2026-05-06 15:24 | 51.73005 | 8.63010 | 30825 ft | 517 kts | 104° |
| 2026-05-06 15:24 | 51.71389 | 8.74330 | 30827 ft | 517 kts | 104° |
| 2026-05-06 15:25 | 51.69779 | 8.85569 | 30823 ft | 518 kts | 104° |
| 2026-05-06 15:25 | 51.68140 | 8.96890 | 30817 ft | 518 kts | 104° |
| 2026-05-06 15:26 | 51.66496 | 9.08187 | 30812 ft | 518 kts | 104° |
| 2026-05-06 15:26 | 51.64837 | 9.19483 | 30798 ft | 518 kts | 105° |
| 2026-05-06 15:27 | 51.63172 | 9.30764 | 30794 ft | 518 kts | 105° |
| 2026-05-06 15:27 | 51.61493 | 9.42058 | 30796 ft | 520 kts | 105° |
| 2026-05-06 15:28 | 51.59791 | 9.53379 | 30800 ft | 521 kts | 106° |
| 2026-05-06 15:28 | 51.58088 | 9.64696 | 30798 ft | 521 kts | 106° |
| 2026-05-06 15:29 | 51.56370 | 9.75958 | 30787 ft | 522 kts | 107° |
| 2026-05-06 15:29 | 51.54628 | 9.87348 | 30775 ft | 522 kts | 107° |
| 2026-05-06 15:30 | 51.52892 | 9.98603 | 30774 ft | 523 kts | 107° |
| 2026-05-06 15:30 | 51.51132 | 10.09944 | 30766 ft | 522 kts | 108° |
| 2026-05-06 15:31 | 51.49359 | 10.21268 | 30764 ft | 523 kts | 108° |
| 2026-05-06 15:31 | 51.47578 | 10.32580 | 30761 ft | 523 kts | 108° |
| 2026-05-06 15:32 | 51.44882 | 10.49555 | 30754 ft | 523 kts | 108° |
| 2026-05-06 15:32 | 51.43094 | 10.60874 | 30758 ft | 523 kts | 108° |
| 2026-05-06 15:33 | 51.41313 | 10.72095 | 30758 ft | 523 kts | 108° |
| 2026-05-06 15:33 | 51.39507 | 10.83369 | 30762 ft | 522 kts | 108° |
| 2026-05-06 15:34 | 51.37698 | 10.94634 | 30760 ft | 522 kts | 108° |
| 2026-05-06 15:34 | 51.35874 | 11.05870 | 30757 ft | 522 kts | 108° |
| 2026-05-06 15:35 | 51.34043 | 11.17106 | 30759 ft | 521 kts | 109° |
| 2026-05-06 15:35 | 51.32200 | 11.28320 | 30758 ft | 522 kts | 109° |
| 2026-05-06 15:36 | 51.30331 | 11.39624 | 30759 ft | 528 kts | 109° |
| 2026-05-06 15:36 | 51.28438 | 11.51006 | 30770 ft | 530 kts | 109° |
| 2026-05-06 15:37 | 51.26543 | 11.62312 | 30769 ft | 530 kts | 109° |
| 2026-05-06 15:37 | 51.24622 | 11.73706 | 30763 ft | 531 kts | 109° |
| 2026-05-06 15:38 | 51.22689 | 11.85096 | 30759 ft | 531 kts | 109° |
| 2026-05-06 15:38 | 51.20745 | 11.96475 | 30762 ft | 532 kts | 109° |
| 2026-05-06 15:39 | 51.18791 | 12.07838 | 30759 ft | 532 kts | 109° |
| 2026-05-06 15:39 | 51.16833 | 12.19148 | 30761 ft | 532 kts | 110° |
| 2026-05-06 15:40 | 51.14852 | 12.30518 | 30749 ft | 532 kts | 110° |
| 2026-05-06 15:40 | 51.12859 | 12.41885 | 30743 ft | 533 kts | 110° |
| 2026-05-06 15:41 | 51.10857 | 12.53235 | 30740 ft | 533 kts | 110° |
| 2026-05-06 15:41 | 51.08843 | 12.64576 | 30744 ft | 533 kts | 110° |
| 2026-05-06 15:42 | 51.06813 | 12.75941 | 30743 ft | 534 kts | 110° |
| 2026-05-06 15:42 | 51.04771 | 12.87294 | 30756 ft | 534 kts | 110° |
| 2026-05-06 15:43 | 51.02731 | 12.98567 | 30752 ft | 535 kts | 110° |
| 2026-05-06 15:43 | 51.00655 | 13.09970 | 30754 ft | 535 kts | 110° |
| 2026-05-06 15:44 | 50.98581 | 13.21294 | 30755 ft | 536 kts | 110° |
| 2026-05-06 15:44 | 50.96489 | 13.32644 | 30759 ft | 536 kts | 111° |
| 2026-05-06 15:45 | 50.94386 | 13.43983 | 30760 ft | 536 kts | 111° |
| 2026-05-06 15:45 | 50.92271 | 13.55314 | 30765 ft | 536 kts | 111° |
| 2026-05-06 15:46 | 50.90153 | 13.66596 | 30768 ft | 537 kts | 111° |
| 2026-05-06 15:46 | 50.88012 | 13.77934 | 30767 ft | 538 kts | 111° |
| 2026-05-06 15:47 | 50.85819 | 13.89253 | 30769 ft | 535 kts | 116° |
| 2026-05-06 15:47 | 50.82171 | 13.99289 | 30780 ft | 521 kts | 135° |
| 2026-05-06 15:48 | 50.76861 | 14.06746 | 30789 ft | 505 kts | 153° |
| 2026-05-06 15:48 | 50.70873 | 14.12541 | 30775 ft | 504 kts | 154° |
| 2026-05-06 15:49 | 50.64885 | 14.18267 | 30773 ft | 503 kts | 154° |
| 2026-05-06 15:49 | 50.58935 | 14.23970 | 30769 ft | 503 kts | 154° |
| 2026-05-06 15:50 | 50.52942 | 14.29679 | 30761 ft | 503 kts | 154° |
| 2026-05-06 15:50 | 50.46954 | 14.35377 | 30771 ft | 504 kts | 154° |
| 2026-05-06 15:51 | 50.40956 | 14.41061 | 30766 ft | 503 kts | 154° |
| 2026-05-06 15:51 | 50.34963 | 14.46726 | 30765 ft | 503 kts | 154° |
| 2026-05-06 15:52 | 50.28965 | 14.52377 | 30764 ft | 504 kts | 154° |
| 2026-05-06 15:52 | 50.22953 | 14.58026 | 30768 ft | 504 kts | 154° |
| 2026-05-06 15:53 | 50.16932 | 14.63667 | 30767 ft | 504 kts | 155° |
| 2026-05-06 15:53 | 50.10904 | 14.69296 | 30766 ft | 505 kts | 155° |
| 2026-05-06 15:54 | 50.04895 | 14.74892 | 30762 ft | 506 kts | 155° |
| 2026-05-06 15:54 | 49.98854 | 14.80501 | 30765 ft | 506 kts | 155° |
| 2026-05-06 15:55 | 49.92802 | 14.86104 | 30763 ft | 506 kts | 155° |
| 2026-05-06 15:55 | 49.86751 | 14.91688 | 30751 ft | 506 kts | 155° |
| 2026-05-06 15:56 | 49.80699 | 14.97258 | 30749 ft | 506 kts | 155° |
| 2026-05-06 15:56 | 49.74682 | 15.02898 | 30759 ft | 509 kts | 150° |
| 2026-05-06 15:57 | 49.69518 | 15.10637 | 30764 ft | 528 kts | 132° |
| 2026-05-06 15:57 | 49.65813 | 15.20569 | 30760 ft | 537 kts | 123° |
| 2026-05-06 15:58 | 49.62417 | 15.30850 | 30757 ft | 537 kts | 123° |
| 2026-05-06 15:58 | 49.58985 | 15.41090 | 30753 ft | 538 kts | 123° |
| 2026-05-06 15:59 | 49.55547 | 15.51360 | 30752 ft | 540 kts | 123° |
| 2026-05-06 15:59 | 49.52113 | 15.61556 | 30741 ft | 539 kts | 123° |
| 2026-05-06 16:00 | 49.48649 | 15.71804 | 30757 ft | 539 kts | 123° |
| 2026-05-06 16:00 | 49.45176 | 15.82040 | 30739 ft | 539 kts | 123° |
| 2026-05-06 16:01 | 49.41696 | 15.92249 | 30754 ft | 539 kts | 123° |
| 2026-05-06 16:01 | 49.38208 | 16.02444 | 30762 ft | 541 kts | 123° |
| 2026-05-06 16:02 | 49.34710 | 16.12635 | 30760 ft | 540 kts | 123° |
| 2026-05-06 16:02 | 49.31228 | 16.22731 | 30762 ft | 539 kts | 123° |
| 2026-05-06 16:03 | 49.27710 | 16.32892 | 30759 ft | 540 kts | 123° |
| 2026-05-06 16:03 | 49.24186 | 16.43034 | 30758 ft | 539 kts | 123° |
| 2026-05-06 16:04 | 49.20654 | 16.53154 | 30762 ft | 539 kts | 123° |
| 2026-05-06 16:04 | 49.17118 | 16.63247 | 30764 ft | 539 kts | 123° |
| 2026-05-06 16:05 | 49.12946 | 16.72587 | 30752 ft | 527 kts | 138° |
| 2026-05-06 16:05 | 49.08757 | 16.79346 | 30736 ft | 526 kts | 139° |
| 2026-05-06 16:06 | 49.02882 | 16.88770 | 30760 ft | 527 kts | 139° |
| 2026-05-06 16:06 | 48.97839 | 16.96852 | 30761 ft | 527 kts | 139° |
| 2026-05-06 16:07 | 48.93590 | 17.03626 | 30783 ft | 528 kts | 139° |
| 2026-05-06 16:07 | 48.88548 | 17.11661 | 30779 ft | 528 kts | 138° |
| 2026-05-06 16:08 | 48.83462 | 17.19733 | 30782 ft | 529 kts | 138° |
| 2026-05-06 16:08 | 48.78391 | 17.27825 | 30783 ft | 529 kts | 138° |
| 2026-05-06 16:09 | 48.73299 | 17.35893 | 30788 ft | 529 kts | 138° |
| 2026-05-06 16:09 | 48.68209 | 17.43948 | 30791 ft | 529 kts | 138° |
| 2026-05-06 16:10 | 48.63111 | 17.51985 | 30798 ft | 528 kts | 138° |
| 2026-05-06 16:10 | 48.58005 | 17.60009 | 30801 ft | 529 kts | 138° |
| 2026-05-06 16:11 | 48.52897 | 17.68014 | 30806 ft | 530 kts | 138° |
| 2026-05-06 16:11 | 48.47771 | 17.76019 | 30799 ft | 530 kts | 138° |
| 2026-05-06 16:12 | 48.42645 | 17.84003 | 30807 ft | 530 kts | 138° |
| 2026-05-06 16:12 | 48.37538 | 17.91929 | 30813 ft | 531 kts | 137° |
| 2026-05-06 16:13 | 48.32394 | 17.99892 | 30824 ft | 531 kts | 138° |
| 2026-05-06 16:13 | 48.27309 | 18.07987 | 30838 ft | 533 kts | 135° |
| 2026-05-06 16:14 | 48.22342 | 18.16244 | 30824 ft | 533 kts | 135° |
| 2026-05-06 16:14 | 48.19863 | 18.20358 | 30276 ft | 530 kts | 135° |
| 2026-05-06 16:14 | 48.17410 | 18.24460 | 29490 ft | 528 kts | 135° |
| 2026-05-06 16:15 | 48.14960 | 18.28541 | 28660 ft | 524 kts | 135° |
| 2026-05-06 16:15 | 48.12519 | 18.32575 | 27849 ft | 521 kts | 135° |
| 2026-05-06 16:15 | 48.10096 | 18.36572 | 27067 ft | 517 kts | 135° |
| 2026-05-06 16:15 | 48.07690 | 18.40554 | 26292 ft | 513 kts | 135° |
| 2026-05-06 16:16 | 48.05307 | 18.44493 | 25568 ft | 509 kts | 135° |
| 2026-05-06 16:16 | 48.02936 | 18.48396 | 24849 ft | 505 kts | 135° |
| 2026-05-06 16:16 | 48.00586 | 18.52256 | 24148 ft | 501 kts | 135° |
| 2026-05-06 16:16 | 47.98401 | 18.56290 | 23461 ft | 499 kts | 126° |
| 2026-05-06 16:17 | 47.96768 | 18.60780 | 22683 ft | 498 kts | 115° |
| 2026-05-06 16:17 | 47.95588 | 18.65693 | 21893 ft | 495 kts | 110° |
| 2026-05-06 16:17 | 47.94525 | 18.70470 | 21148 ft | 490 kts | 110° |
| 2026-05-06 16:17 | 47.93462 | 18.75288 | 20397 ft | 486 kts | 110° |
| 2026-05-06 16:18 | 47.92396 | 18.80042 | 19652 ft | 479 kts | 111° |
| 2026-05-06 16:18 | 47.91359 | 18.84625 | 18890 ft | 454 kts | 111° |
| 2026-05-06 16:18 | 47.90376 | 18.88979 | 18155 ft | 433 kts | 111° |
| 2026-05-06 16:18 | 47.89438 | 18.93142 | 17317 ft | 415 kts | 111° |
| 2026-05-06 16:19 | 47.88465 | 18.97110 | 16494 ft | 397 kts | 120° |
| 2026-05-06 16:19 | 47.87029 | 19.00492 | 15751 ft | 378 kts | 134° |
| 2026-05-06 16:19 | 47.85296 | 19.03342 | 14993 ft | 365 kts | 136° |
| 2026-05-06 16:19 | 47.83588 | 19.06076 | 14254 ft | 356 kts | 136° |
| 2026-05-06 16:20 | 47.81918 | 19.08738 | 13506 ft | 348 kts | 136° |
| 2026-05-06 16:20 | 47.80284 | 19.11354 | 12688 ft | 341 kts | 136° |
| 2026-05-06 16:20 | 47.78708 | 19.13882 | 11934 ft | 335 kts | 136° |
| 2026-05-06 16:20 | 47.77110 | 19.16435 | 11169 ft | 330 kts | 136° |
| 2026-05-06 16:21 | 47.75608 | 19.18920 | 10453 ft | 326 kts | 133° |
| 2026-05-06 16:21 | 47.74145 | 19.21414 | 9984 ft | 313 kts | 136° |
| 2026-05-06 16:21 | 47.72712 | 19.23711 | 9870 ft | 291 kts | 136° |
| 2026-05-06 16:21 | 47.71413 | 19.25859 | 9843 ft | 269 kts | 136° |
| 2026-05-06 16:22 | 47.70216 | 19.27876 | 9882 ft | 260 kts | 136° |
| 2026-05-06 16:22 | 47.69018 | 19.29870 | 9866 ft | 254 kts | 136° |
| 2026-05-06 16:22 | 47.67830 | 19.31840 | 9863 ft | 256 kts | 137° |
| 2026-05-06 16:22 | 47.66630 | 19.33805 | 9707 ft | 257 kts | 137° |
| 2026-05-06 16:23 | 47.65427 | 19.35732 | 9493 ft | 250 kts | 137° |
| 2026-05-06 16:23 | 47.64240 | 19.37643 | 9292 ft | 252 kts | 137° |
| 2026-05-06 16:23 | 47.62976 | 19.39349 | 9093 ft | 247 kts | 156° |
| 2026-05-06 16:23 | 47.61390 | 19.40164 | 8928 ft | 240 kts | 178° |
| 2026-05-06 16:24 | 47.59757 | 19.39965 | 8752 ft | 235 kts | 199° |
| 2026-05-06 16:24 | 47.58328 | 19.38835 | 8585 ft | 233 kts | 220° |
| 2026-05-06 16:24 | 47.57125 | 19.37220 | 8415 ft | 234 kts | 222° |
| 2026-05-06 16:24 | 47.55929 | 19.35589 | 8214 ft | 234 kts | 222° |
| 2026-05-06 16:25 | 47.54813 | 19.33858 | 8013 ft | 234 kts | 237° |
| 2026-05-06 16:25 | 47.54223 | 19.31618 | 7850 ft | 237 kts | 259° |
| 2026-05-06 16:25 | 47.54303 | 19.29161 | 7675 ft | 244 kts | 282° |
| 2026-05-06 16:25 | 47.55094 | 19.26909 | 7513 ft | 253 kts | 306° |
| 2026-05-06 16:26 | 47.56268 | 19.24976 | 7318 ft | 253 kts | 308° |
| 2026-05-06 16:26 | 47.57468 | 19.23068 | 7115 ft | 253 kts | 308° |
| 2026-05-06 16:26 | 47.58657 | 19.21157 | 6905 ft | 252 kts | 308° |
| 2026-05-06 16:26 | 47.59826 | 19.19255 | 6675 ft | 246 kts | 308° |
| 2026-05-06 16:27 | 47.60960 | 19.17412 | 6482 ft | 234 kts | 308° |
| 2026-05-06 16:27 | 47.62009 | 19.15708 | 6272 ft | 221 kts | 307° |
| 2026-05-06 16:27 | 47.63023 | 19.14056 | 6026 ft | 213 kts | 307° |
| 2026-05-06 16:27 | 47.64003 | 19.12459 | 5776 ft | 207 kts | 307° |
| 2026-05-06 16:28 | 47.64959 | 19.10901 | 5513 ft | 202 kts | 307° |
| 2026-05-06 16:28 | 47.65887 | 19.09387 | 5267 ft | 194 kts | 306° |
| 2026-05-06 16:28 | 47.66621 | 19.07801 | 5004 ft | 181 kts | 296° |
| 2026-05-06 16:28 | 47.67504 | 19.06443 | 4710 ft | 179 kts | 305° |
| 2026-05-06 16:29 | 47.68318 | 19.05087 | 4481 ft | 179 kts | 306° |
| 2026-05-06 16:29 | 47.69138 | 19.03731 | 4296 ft | 177 kts | 306° |
| 2026-05-06 16:29 | 47.69951 | 19.02391 | 4113 ft | 172 kts | 305° |
| 2026-05-06 16:29 | 47.70750 | 19.01081 | 3867 ft | 170 kts | 306° |
| 2026-05-06 16:30 | 47.71488 | 18.99725 | 3596 ft | 168 kts | 289° |
| 2026-05-06 16:30 | 47.71611 | 18.98654 | 3422 ft | 154 kts | 257° |
| 2026-05-06 16:30 | 47.70806 | 18.97071 | 3447 ft | 148 kts | 211° |
| 2026-05-06 16:30 | 47.69791 | 18.96807 | 3353 ft | 149 kts | 171° |
| 2026-05-06 16:31 | 47.68748 | 18.97130 | 3396 ft | 154 kts | 172° |
| 2026-05-06 16:31 | 47.67715 | 18.97518 | 3394 ft | 155 kts | 171° |
| 2026-05-06 16:31 | 47.66668 | 18.97926 | 3420 ft | 164 kts | 170° |
| 2026-05-06 16:31 | 47.65516 | 18.98357 | 3403 ft | 172 kts | 171° |
| 2026-05-06 16:32 | 47.64349 | 18.98793 | 3392 ft | 171 kts | 171° |
| 2026-05-06 16:32 | 47.63176 | 18.99235 | 3389 ft | 170 kts | 171° |
| 2026-05-06 16:32 | 47.62092 | 18.99649 | 3370 ft | 158 kts | 170° |
| 2026-05-06 16:32 | 47.61024 | 19.00042 | 3381 ft | 159 kts | 171° |
| 2026-05-06 16:33 | 47.59953 | 19.00433 | 3368 ft | 156 kts | 171° |
| 2026-05-06 16:33 | 47.58903 | 19.00879 | 3354 ft | 161 kts | 160° |
| 2026-05-06 16:33 | 47.57928 | 19.01668 | 3376 ft | 161 kts | 162° |
| 2026-05-06 16:34 | 47.56179 | 19.03794 | 3378 ft | 166 kts | 141° |
| 2026-05-06 16:34 | 47.55400 | 19.05052 | 3384 ft | 163 kts | 139° |
| 2026-05-06 16:34 | 47.54631 | 19.06288 | 3197 ft | 162 kts | 139° |
| 2026-05-06 16:34 | 47.53871 | 19.07519 | 3012 ft | 162 kts | 139° |
| 2026-05-06 16:35 | 47.53110 | 19.08751 | 2804 ft | 162 kts | 139° |
| 2026-05-06 16:35 | 47.52350 | 19.09985 | 2592 ft | 165 kts | 139° |
| 2026-05-06 16:35 | 47.51582 | 19.11233 | 2382 ft | 163 kts | 140° |
| 2026-05-06 16:35 | 47.50816 | 19.12469 | 2162 ft | 161 kts | 139° |
| 2026-05-06 16:36 | 47.50064 | 19.13687 | 1968 ft | 161 kts | 139° |
| 2026-05-06 16:36 | 47.49316 | 19.14894 | 1737 ft | 155 kts | 139° |
| 2026-05-06 16:36 | 47.48605 | 19.16051 | 1537 ft | 153 kts | 139° |
| 2026-05-06 16:36 | 47.47880 | 19.17216 | 1352 ft | 158 kts | 138° |
| 2026-05-06 16:37 | 47.47137 | 19.18410 | 1147 ft | 156 kts | 137° |
| 2026-05-06 16:37 | 47.46414 | 19.19587 | 944 ft | 153 kts | 138° |
| 2026-05-06 16:37 | 47.45697 | 19.20748 | 742 ft | 154 kts | 137° |
| 2026-05-06 16:37 | 47.44967 | 19.21926 | 555 ft | 155 kts | 137° |
| 2026-05-06 16:38 | 47.44252 | 19.23096 | 458 ft | 152 kts | 136° |
| 2026-05-06 16:38 | 47.43573 | 19.24144 | 460 ft | 123 kts | 134° |
| 2026-05-06 16:38 | 47.43243 | 19.24693 | 462 ft | 39 kts | 133° |
| 2026-05-06 16:38 | 47.43109 | 19.24901 | 464 ft | 21 kts | 121° |
| 2026-05-06 16:39 | 47.43123 | 19.25070 | 464 ft | 16 kts | 61° |
| 2026-05-06 16:39 | 47.43189 | 19.25180 | 464 ft | 14 kts | 45° |
| 2026-05-06 16:39 | 47.43259 | 19.25279 | 464 ft | 14 kts | 44° |
| 2026-05-06 16:39 | 47.43320 | 19.25391 | 464 ft | 12 kts | 73° |
| 2026-05-06 16:40 | 47.43305 | 19.25487 | 464 ft | 9 kts | 123° |
| 2026-05-06 16:40 | 47.43246 | 19.25585 | 464 ft | 16 kts | 132° |
| 2026-05-06 16:40 | 47.43192 | 19.25694 | 464 ft | 5 kts | 105° |
| 2026-05-06 16:40 | 47.43201 | 19.25733 | 462 ft | 9 kts | 61° |
| 2026-05-06 16:41 | 47.43240 | 19.25793 | 464 ft | 2 kts | 40° |
| 2026-05-06 16:42 | 47.43245 | 19.25785 | 464 ft | 0 kts | 40° |
| 2026-05-06 16:43 | 47.43244 | 19.25785 | 464 ft | 0 kts | 40° |
| 2026-05-06 16:45 | 47.43244 | 19.25784 | 464 ft | 0 kts | 40° |